Time,TemperatureF,DewpointF,PressureIn,WindDirection,WindDirectionDegrees,WindSpeedMPH,WindSpeedGustMPH,Humidity,HourlyPrecipIn,Conditions,Clouds,dailyrainin,SoftwareType,DateUTC
2013-02-17 00:02:00,49.0,33.0,30.11,NNW,336,16.0,30.0,53,0.48,,,-99.99,,2013-02-17 05:02:00,
2013-02-17 00:12:00,49.0,31.0,30.11,NNW,345,17.0,30.0,49,0.48,,,-99.99,,2013-02-17 05:12:00,
2013-02-17 00:22:00,49.0,31.0,30.11,NNW,345,17.0,30.0,49,0.48,,,-99.99,,2013-02-17 05:22:00,
2013-02-17 00:33:00,48.0,30.0,30.13,NNW,338,15.0,23.0,49,0.48,,,-99.99,,2013-02-17 05:33:00,
2013-02-17 00:42:00,48.0,30.0,30.13,NNW,338,15.0,23.0,49,0.48,,,-99.99,,2013-02-17 05:42:00,
2013-02-17 00:52:00,48.0,29.0,30.13,North,349,15.0,23.0,47,0.48,,,-99.99,,2013-02-17 05:52:00,
2013-02-17 01:02:00,47.0,27.0,30.14,NNW,333,16.0,27.0,46,0.48,,,-99.99,,2013-02-17 06:02:00,
2013-02-17 01:11:00,47.0,27.0,30.14,NNW,333,16.0,27.0,46,0.48,,,-99.99,,2013-02-17 06:11:00,
2013-02-17 01:21:00,46.0,26.0,30.14,NNW,333,15.0,25.0,45,0.48,,,-99.99,,2013-02-17 06:21:00,
2013-02-17 01:32:00,46.0,25.0,30.14,NNW,342,16.0,27.0,44,0.48,,,-99.99,,2013-02-17 06:32:00,
2013-02-17 01:42:00,46.0,25.0,30.14,NNW,342,16.0,27.0,44,0.48,,,-99.99,,2013-02-17 06:42:00,
2013-02-17 01:52:00,45.0,25.0,30.15,NNW,339,12.0,21.0,46,0.48,,,-99.99,,2013-02-17 06:52:00,
2013-02-17 02:01:00,45.0,26.0,30.15,NW,321,12.0,20.0,47,0.48,,,-99.99,,2013-02-17 07:01:00,
2013-02-17 02:11:00,44.0,25.0,30.15,NNW,329,13.0,20.0,47,0.48,,,-99.99,,2013-02-17 07:11:00,
2013-02-17 02:21:00,44.0,25.0,30.15,NNW,329,13.0,20.0,47,0.48,,,-99.99,,2013-02-17 07:21:00,
2013-02-17 02:32:00,44.0,26.0,30.15,NNW,343,12.0,18.0,48,0.48,,,-99.99,,2013-02-17 07:32:00,
2013-02-17 02:42:00,44.0,26.0,30.15,NNW,343,12.0,18.0,48,0.48,,,-99.99,,2013-02-17 07:42:00,
2013-02-17 02:52:00,43.0,26.0,30.15,NNW,336,10.0,16.0,51,0.48,,,-99.99,,2013-02-17 07:52:00,
2013-02-17 03:01:00,43.0,27.0,30.16,NNW,340,11.0,16.0,52,0.48,,,-99.99,,2013-02-17 08:01:00,
2013-02-17 03:11:00,43.0,27.0,30.16,NNW,340,11.0,16.0,52,0.48,,,-99.99,,2013-02-17 08:11:00,
2013-02-17 03:21:00,42.0,26.0,30.16,NNW,335,11.0,18.0,53,0.48,,,-99.99,,2013-02-17 08:21:00,
2013-02-17 03:32:00,42.0,24.0,30.16,NNW,339,13.0,20.0,48,0.48,,,-99.99,,2013-02-17 08:32:00,
2013-02-17 03:42:00,42.0,24.0,30.16,NNW,339,13.0,20.0,48,0.48,,,-99.99,,2013-02-17 08:42:00,
2013-02-17 03:52:00,42.0,25.0,30.15,North,350,11.0,16.0,50,0.48,,,-99.99,,2013-02-17 08:52:00,
2013-02-17 04:02:00,41.0,23.0,30.16,NNW,336,11.0,20.0,49,0.48,,,-99.99,,2013-02-17 09:02:00,
2013-02-17 04:11:00,41.0,23.0,30.16,NNW,336,11.0,20.0,49,0.48,,,-99.99,,2013-02-17 09:11:00,
2013-02-17 04:21:00,41.0,24.0,30.16,NNW,335,11.0,16.0,50,0.48,,,-99.99,,2013-02-17 09:21:00,
2013-02-17 04:32:00,40.0,24.0,30.17,NNW,332,10.0,14.0,52,0.48,,,-99.99,,2013-02-17 09:32:00,
2013-02-17 04:42:00,40.0,24.0,30.17,NNW,332,10.0,14.0,52,0.48,,,-99.99,,2013-02-17 09:42:00,
2013-02-17 04:52:00,40.0,26.0,30.18,North,352,8.0,13.0,57,0.48,,,-99.99,,2013-02-17 09:52:00,
2013-02-17 05:01:00,39.0,26.0,30.18,NNW,345,8.0,12.0,59,0.48,,,-99.99,,2013-02-17 10:01:00,
2013-02-17 05:11:00,38.0,26.0,30.19,North,352,7.0,9.0,62,0.48,,,-99.99,,2013-02-17 10:11:00,
2013-02-17 05:21:00,38.0,26.0,30.19,North,352,7.0,9.0,62,0.48,,,-99.99,,2013-02-17 10:21:00,
2013-02-17 05:32:00,38.0,25.0,30.19,North,352,8.0,12.0,60,0.48,,,-99.99,,2013-02-17 10:32:00,
2013-02-17 05:42:00,38.0,25.0,30.19,North,352,8.0,12.0,60,0.48,,,-99.99,,2013-02-17 10:42:00,
2013-02-17 05:52:00,38.0,24.0,30.20,North,356,9.0,14.0,57,0.48,,,-99.99,,2013-02-17 10:52:00,
2013-02-17 06:01:00,38.0,24.0,30.21,North,352,9.0,15.0,56,0.48,,,-99.99,,2013-02-17 11:01:00,
2013-02-17 06:11:00,38.0,24.0,30.21,North,352,9.0,15.0,56,0.48,,,-99.99,,2013-02-17 11:11:00,
2013-02-17 06:21:00,38.0,22.0,30.22,North,353,9.0,15.0,53,0.48,,,-99.99,,2013-02-17 11:21:00,
2013-02-17 06:32:00,38.0,22.0,30.22,North,354,9.0,15.0,53,0.48,,,-99.99,,2013-02-17 11:32:00,
2013-02-17 06:42:00,38.0,22.0,30.22,North,354,9.0,15.0,53,0.48,,,-99.99,,2013-02-17 11:42:00,
2013-02-17 06:52:00,38.0,23.0,30.22,North,353,8.0,13.0,54,0.48,,,-99.99,,2013-02-17 11:52:00,
2013-02-17 07:03:00,38.0,22.0,30.23,NNW,332,9.0,16.0,52,0.48,,,-99.99,,2013-02-17 12:03:00,
2013-02-17 07:11:00,38.0,22.0,30.23,NNW,332,9.0,16.0,52,0.48,,,-99.99,,2013-02-17 12:11:00,
2013-02-17 07:22:00,38.0,22.0,30.23,North,350,9.0,14.0,52,0.48,,,-99.99,,2013-02-17 12:22:00,
2013-02-17 07:32:00,37.0,22.0,30.24,North,349,8.0,13.0,54,0.48,,,-99.99,,2013-02-17 12:32:00,
2013-02-17 07:42:00,37.0,22.0,30.24,North,349,8.0,13.0,54,0.48,,,-99.99,,2013-02-17 12:42:00,
2013-02-17 07:52:00,37.0,23.0,30.24,North,350,9.0,13.0,56,0.48,,,-99.99,,2013-02-17 12:52:00,
2013-02-17 08:02:00,38.0,23.0,30.25,NNW,343,9.0,14.0,55,0.48,,,-99.99,,2013-02-17 13:02:00,
2013-02-17 08:12:00,38.0,23.0,30.25,NNW,343,9.0,14.0,55,0.48,,,-99.99,,2013-02-17 13:12:00,
2013-02-17 08:22:00,39.0,23.0,30.26,NNW,347,9.0,17.0,52,0.48,,,-99.99,,2013-02-17 13:22:00,
2013-02-17 08:32:00,40.0,24.0,30.27,NNW,345,8.0,14.0,53,0.48,,,-99.99,,2013-02-17 13:32:00,
2013-02-17 08:42:00,40.0,24.0,30.27,NNW,345,8.0,14.0,53,0.48,,,-99.99,,2013-02-17 13:42:00,
2013-02-17 08:52:00,41.0,25.0,30.27,North,0,8.0,16.0,52,0.48,,,-99.99,,2013-02-17 13:52:00,
2013-02-17 09:01:00,41.0,21.0,30.28,North,352,10.0,18.0,45,0.48,,,-99.99,,2013-02-17 14:01:00,
2013-02-17 09:11:00,41.0,21.0,30.28,North,352,10.0,18.0,45,0.48,,,-99.99,,2013-02-17 14:11:00,
2013-02-17 09:21:00,42.0,23.0,30.28,NNW,336,12.0,18.0,46,0.48,,,-99.99,,2013-02-17 14:21:00,
2013-02-17 09:32:00,42.0,23.0,30.29,North,357,10.0,19.0,46,0.48,,,-99.99,,2013-02-17 14:32:00,
2013-02-17 09:42:00,42.0,23.0,30.29,North,357,10.0,19.0,46,0.48,,,-99.99,,2013-02-17 14:42:00,
2013-02-17 09:53:00,43.0,23.0,30.29,NNW,347,14.0,22.0,44,0.48,,,-99.99,,2013-02-17 14:53:00,
2013-02-17 10:02:00,44.0,23.0,30.29,NNW,339,10.0,22.0,43,0.48,,,-99.99,,2013-02-17 15:02:00,
2013-02-17 10:11:00,44.0,23.0,30.29,NNW,339,10.0,22.0,43,0.48,,,-99.99,,2013-02-17 15:11:00,
2013-02-17 10:21:00,44.0,21.0,30.30,NNW,336,15.0,26.0,40,0.48,,,-99.99,,2013-02-17 15:21:00,
2013-02-17 10:32:00,44.0,21.0,30.29,North,353,10.0,17.0,39,0.48,,,-99.99,,2013-02-17 15:32:00,
2013-02-17 10:42:00,44.0,21.0,30.29,North,353,10.0,17.0,39,0.48,,,-99.99,,2013-02-17 15:42:00,
2013-02-17 10:52:00,45.0,22.0,30.29,NW,321,10.0,18.0,40,0.48,,,-99.99,,2013-02-17 15:52:00,
2013-02-17 11:01:00,46.0,22.0,30.30,NNW,345,14.0,22.0,38,0.48,,,-99.99,,2013-02-17 16:01:00,
2013-02-17 11:12:00,46.0,22.0,30.30,NNW,345,14.0,22.0,38,0.48,,,-99.99,,2013-02-17 16:12:00,
2013-02-17 11:21:00,46.0,21.0,30.30,NNW,336,9.0,16.0,37,0.48,,,-99.99,,2013-02-17 16:21:00,
2013-02-17 11:32:00,47.0,23.0,30.30,North,354,8.0,14.0,39,0.48,,,-99.99,,2013-02-17 16:32:00,
2013-02-17 11:42:00,47.0,23.0,30.30,North,354,8.0,14.0,39,0.48,,,-99.99,,2013-02-17 16:42:00,
2013-02-17 11:52:00,47.0,22.0,30.30,NNW,338,7.0,13.0,37,0.48,,,-99.99,,2013-02-17 16:52:00,
2013-02-17 12:02:00,47.0,21.0,30.30,NNW,347,12.0,19.0,35,0.48,,,-99.99,,2013-02-17 17:02:00,
2013-02-17 12:11:00,47.0,21.0,30.30,NNW,347,12.0,19.0,35,0.48,,,-99.99,,2013-02-17 17:11:00,
2013-02-17 12:21:00,48.0,21.0,30.30,NNW,343,8.0,16.0,34,0.48,,,-99.99,,2013-02-17 17:21:00,
2013-02-17 12:32:00,49.0,22.0,30.30,NNW,345,5.0,13.0,34,0.48,,,-99.99,,2013-02-17 17:32:00,
2013-02-17 12:42:00,49.0,22.0,30.30,NNW,345,5.0,13.0,34,0.48,,,-99.99,,2013-02-17 17:42:00,
2013-02-17 12:52:00,48.0,21.0,30.30,NNW,335,12.0,19.0,34,0.48,,,-99.99,,2013-02-17 17:52:00,
2013-02-17 13:02:00,49.0,21.0,30.29,NNW,339,5.0,10.0,33,0.48,,,-99.99,,2013-02-17 18:02:00,
2013-02-17 13:11:00,49.0,21.0,30.29,NNW,339,5.0,10.0,33,0.48,,,-99.99,,2013-02-17 18:11:00,
2013-02-17 13:22:00,51.0,23.0,30.28,NW,323,7.0,13.0,33,0.48,,,-99.99,,2013-02-17 18:22:00,
2013-02-17 13:33:00,51.0,20.0,30.28,NW,315,11.0,16.0,29,0.48,,,-99.99,,2013-02-17 18:33:00,
2013-02-17 13:42:00,51.0,20.0,30.28,NW,315,11.0,16.0,29,0.48,,,-99.99,,2013-02-17 18:42:00,
2013-02-17 13:52:00,51.0,21.0,30.27,NNW,347,6.0,11.0,31,0.48,,,-99.99,,2013-02-17 18:52:00,
2013-02-17 14:01:00,51.0,18.0,30.27,NNW,335,5.0,11.0,27,0.48,,,-99.99,,2013-02-17 19:01:00,
2013-02-17 14:11:00,51.0,18.0,30.27,NNW,335,5.0,11.0,27,0.48,,,-99.99,,2013-02-17 19:11:00,
2013-02-17 14:21:00,52.0,19.0,30.26,NNW,336,6.0,14.0,27,0.48,,,-99.99,,2013-02-17 19:21:00,
2013-02-17 14:32:00,51.0,19.0,30.26,NNW,338,6.0,13.0,28,0.48,,,-99.99,,2013-02-17 19:32:00,
2013-02-17 14:42:00,51.0,19.0,30.26,NNW,338,6.0,13.0,28,0.48,,,-99.99,,2013-02-17 19:42:00,
2013-02-17 14:52:00,53.0,21.0,30.26,North,350,9.0,14.0,28,0.48,,,-99.99,,2013-02-17 19:52:00,
2013-02-17 15:02:00,53.0,17.0,30.25,North,352,5.0,11.0,24,0.48,,,-99.99,,2013-02-17 20:02:00,
2013-02-17 15:11:00,53.0,17.0,30.25,North,352,5.0,11.0,24,0.48,,,-99.99,,2013-02-17 20:11:00,
2013-02-17 15:22:00,53.0,19.0,30.25,NNW,333,8.0,18.0,26,0.48,,,-99.99,,2013-02-17 20:22:00,
2013-02-17 15:32:00,53.0,18.0,30.25,North,353,8.0,13.0,25,0.48,,,-99.99,,2013-02-17 20:32:00,
2013-02-17 15:42:00,53.0,18.0,30.25,North,353,8.0,13.0,25,0.48,,,-99.99,,2013-02-17 20:42:00,
2013-02-17 15:52:00,53.0,17.0,30.25,NNW,347,7.0,14.0,24,0.48,,,-99.99,,2013-02-17 20:52:00,
2013-02-17 16:02:00,52.0,17.0,30.25,North,349,7.0,14.0,25,0.48,,,-99.99,,2013-02-17 21:02:00,
2013-02-17 16:11:00,52.0,17.0,30.25,North,349,7.0,14.0,25,0.48,,,-99.99,,2013-02-17 21:11:00,
2013-02-17 16:21:00,53.0,16.0,30.25,NW,318,8.0,12.0,23,0.48,,,-99.99,,2013-02-17 21:21:00,
2013-02-17 16:32:00,53.0,18.0,30.25,NNW,338,9.0,15.0,25,0.48,,,-99.99,,2013-02-17 21:32:00,
2013-02-17 16:42:00,53.0,18.0,30.25,NNW,338,9.0,15.0,25,0.48,,,-99.99,,2013-02-17 21:42:00,
2013-02-17 16:53:00,53.0,19.0,30.25,NNW,330,7.0,11.0,26,0.48,,,-99.99,,2013-02-17 21:53:00,
2013-02-17 17:01:00,53.0,17.0,30.25,NNW,340,8.0,12.0,24,0.48,,,-99.99,,2013-02-17 22:01:00,
2013-02-17 17:12:00,53.0,17.0,30.25,NNW,340,8.0,12.0,24,0.48,,,-99.99,,2013-02-17 22:12:00,
2013-02-17 17:22:00,53.0,18.0,30.25,NNW,346,7.0,15.0,25,0.48,,,-99.99,,2013-02-17 22:22:00,
2013-02-17 17:32:00,52.0,15.0,30.25,NNW,336,8.0,14.0,23,0.48,,,-99.99,,2013-02-17 22:32:00,
2013-02-17 17:42:00,52.0,15.0,30.25,NNW,336,8.0,14.0,23,0.48,,,-99.99,,2013-02-17 22:42:00,
2013-02-17 17:52:00,52.0,17.0,30.25,NNW,347,5.0,11.0,25,0.48,,,-99.99,,2013-02-17 22:52:00,
2013-02-17 18:02:00,51.0,17.0,30.26,NNW,345,6.0,9.0,26,0.48,,,-99.99,,2013-02-17 23:02:00,
2013-02-17 18:11:00,51.0,17.0,30.26,NNW,345,6.0,9.0,26,0.48,,,-99.99,,2013-02-17 23:11:00,
2013-02-17 18:21:00,51.0,21.0,30.26,North,4,4.0,8.0,31,0.48,,,-99.99,,2013-02-17 23:21:00,
2013-02-17 18:32:00,50.0,21.0,30.27,NE,39,1.0,3.0,32,0.48,,,-99.99,,2013-02-17 23:32:00,
2013-02-17 18:42:00,50.0,21.0,30.27,NE,39,1.0,3.0,32,0.48,,,-99.99,,2013-02-17 23:42:00,
2013-02-17 18:52:00,49.0,23.0,30.27,ENE,72,3.0,5.0,36,0.48,,,-99.99,,2013-02-17 23:52:00,
2013-02-17 19:01:00,48.0,23.0,30.27,ENE,68,3.0,5.0,37,0.48,,,-99.99,,2013-02-18 00:01:00,
2013-02-17 19:11:00,48.0,23.0,30.27,ENE,68,3.0,5.0,37,0.48,,,-99.99,,2013-02-18 00:11:00,
2013-02-17 19:22:00,48.0,23.0,30.27,ENE,66,3.0,5.0,37,0.48,,,-99.99,,2013-02-18 00:22:00,
2013-02-17 19:32:00,47.0,22.0,30.27,East,89,3.0,5.0,37,0.48,,,-99.99,,2013-02-18 00:32:00,
2013-02-17 19:41:00,47.0,22.0,30.27,East,89,3.0,5.0,37,0.48,,,-99.99,,2013-02-18 00:41:00,
2013-02-17 19:52:00,47.0,23.0,30.27,East,86,4.0,6.0,38,0.48,,,-99.99,,2013-02-18 00:52:00,
2013-02-17 20:01:00,47.0,22.0,30.28,East,79,4.0,5.0,37,0.48,,,-99.99,,2013-02-18 01:01:00,
2013-02-17 20:12:00,47.0,22.0,30.28,East,79,4.0,5.0,37,0.48,,,-99.99,,2013-02-18 01:12:00,
2013-02-17 20:21:00,47.0,24.0,30.28,SE,131,4.0,6.0,40,0.48,,,-99.99,,2013-02-18 01:21:00,
2013-02-17 20:32:00,47.0,25.0,30.29,ESE,110,3.0,5.0,42,0.48,,,-99.99,,2013-02-18 01:32:00,
2013-02-17 20:42:00,47.0,25.0,30.29,ESE,110,3.0,5.0,42,0.48,,,-99.99,,2013-02-18 01:42:00,
2013-02-17 20:52:00,47.0,26.0,30.29,East,82,3.0,5.0,44,0.48,,,-99.99,,2013-02-18 01:52:00,
2013-02-17 21:02:00,47.0,28.0,30.29,ENE,76,3.0,5.0,47,0.48,,,-99.99,,2013-02-18 02:02:00,
2013-02-17 21:11:00,47.0,28.0,30.29,ENE,76,3.0,5.0,47,0.48,,,-99.99,,2013-02-18 02:11:00,
2013-02-17 21:22:00,46.0,28.0,30.30,East,83,3.0,5.0,49,0.48,,,-99.99,,2013-02-18 02:22:00,
2013-02-17 21:32:00,46.0,28.0,30.30,ENE,65,4.0,5.0,49,0.48,,,-99.99,,2013-02-18 02:32:00,
2013-02-17 21:42:00,46.0,28.0,30.30,ENE,65,4.0,5.0,49,0.48,,,-99.99,,2013-02-18 02:42:00,
2013-02-17 21:52:00,45.0,28.0,30.31,East,79,4.0,5.0,52,0.48,,,-99.99,,2013-02-18 02:52:00,
2013-02-17 22:02:00,45.0,29.0,30.31,ENE,76,4.0,5.0,54,0.48,,,-99.99,,2013-02-18 03:02:00,
2013-02-17 22:11:00,45.0,29.0,30.31,ENE,76,4.0,5.0,54,0.48,,,-99.99,,2013-02-18 03:11:00,
2013-02-17 22:21:00,45.0,30.0,30.32,East,80,4.0,5.0,55,0.48,,,-99.99,,2013-02-18 03:21:00,
2013-02-17 22:32:00,45.0,32.0,30.32,ENE,65,4.0,5.0,60,0.48,,,-99.99,,2013-02-18 03:32:00,
2013-02-17 22:42:00,45.0,32.0,30.32,ENE,65,4.0,5.0,60,0.48,,,-99.99,,2013-02-18 03:42:00,
2013-02-17 22:52:00,44.0,29.0,30.32,East,84,5.0,7.0,55,0.48,,,-99.99,,2013-02-18 03:52:00,
2013-02-17 23:01:00,43.0,26.0,30.32,East,83,7.0,8.0,51,0.48,,,-99.99,,2013-02-18 04:01:00,
2013-02-17 23:11:00,43.0,26.0,30.32,East,83,7.0,8.0,51,0.48,,,-99.99,,2013-02-18 04:11:00,
2013-02-17 23:21:00,43.0,28.0,30.32,East,90,7.0,9.0,55,0.48,,,-99.99,,2013-02-18 04:21:00,
2013-02-17 23:32:00,43.0,28.0,30.32,East,94,8.0,9.0,55,0.48,,,-99.99,,2013-02-18 04:32:00,
2013-02-17 23:42:00,43.0,28.0,30.32,East,94,8.0,9.0,55,0.48,,,-99.99,,2013-02-18 04:42:00,
2013-02-17 23:52:00,43.0,28.0,30.32,ESE,103,8.0,9.0,56,0.48,,,-99.99,,2013-02-18 04:52:00,